createdAt,value
2023-02-09T00:00:21.595Z,67.58
2023-02-09T00:01:21.615Z,67.47
2023-02-09T00:02:21.674Z,67.90
2023-02-09T00:03:21.643Z,67.79
2023-02-09T00:04:21.560Z,67.68
2023-02-09T00:05:21.549Z,67.37
2023-02-09T00:06:21.524Z,67.68
2023-02-09T00:07:21.529Z,67.68
2023-02-09T00:08:21.516Z,68.03
2023-02-09T00:09:21.487Z,67.37
2023-02-09T00:10:21.493Z,67.47
2023-02-09T00:11:21.477Z,67.47
2023-02-09T00:12:21.477Z,67.68
2023-02-09T00:13:21.441Z,67.58
2023-02-09T00:14:22.256Z,68.00
2023-02-09T00:15:21.422Z,68.24
2023-02-09T00:16:21.442Z,67.68
2023-02-09T00:17:21.446Z,68.10
2023-02-09T00:18:21.395Z,68.00
2023-02-09T00:19:21.406Z,68.55
2023-02-09T00:20:21.386Z,67.40
2023-02-09T00:21:21.379Z,68.00
2023-02-09T00:22:21.364Z,68.66
2023-02-09T00:23:21.335Z,69.18
2023-02-09T00:24:21.347Z,68.55
2023-02-09T00:25:21.322Z,68.13
2023-02-09T00:26:21.306Z,67.58
2023-02-09T00:27:21.301Z,68.13
2023-02-09T00:28:21.370Z,68.87
2023-02-09T00:29:21.270Z,68.94
2023-02-09T00:30:21.265Z,68.03
2023-02-09T00:31:21.391Z,68.24
2023-02-09T00:32:21.249Z,68.87
2023-02-09T00:33:21.386Z,68.03
2023-02-09T00:34:21.228Z,68.13
2023-02-09T00:35:21.221Z,67.61
2023-02-09T00:36:21.192Z,68.84
2023-02-09T00:37:21.180Z,68.66
2023-02-09T00:38:21.206Z,68.45
2023-02-09T00:39:21.153Z,68.45
2023-02-09T00:40:21.147Z,68.45
2023-02-09T00:41:21.137Z,68.55
2023-02-09T00:42:21.149Z,68.66
2023-02-09T00:43:21.120Z,68.87
2023-02-09T00:44:21.114Z,68.24
2023-02-09T00:45:21.089Z,68.27
2023-02-09T00:46:21.096Z,68.79
2023-02-09T00:47:21.083Z,68.55
2023-02-09T00:48:21.061Z,68.87
2023-02-09T00:49:21.105Z,69.42
2023-02-09T00:50:21.048Z,69.00
2023-02-09T00:51:21.034Z,69.32
2023-02-09T00:52:21.015Z,69.21
2023-02-09T00:53:21.032Z,69.63
2023-02-09T00:54:21.021Z,69.42
2023-02-09T00:55:20.989Z,69.32
2023-02-09T00:56:20.968Z,68.79
2023-02-09T00:57:20.972Z,68.79
2023-02-09T00:58:20.953Z,68.48
2023-02-09T00:59:20.936Z,68.38
2023-02-09T01:00:20.952Z,68.90
2023-02-09T01:01:20.943Z,68.79
2023-02-09T01:02:20.914Z,68.79
2023-02-09T01:03:20.884Z,68.69
2023-02-09T01:04:20.997Z,68.69
2023-02-09T01:05:20.916Z,68.59
2023-02-09T01:06:20.866Z,69.42
2023-02-09T01:07:20.857Z,68.79
2023-02-09T01:08:20.863Z,68.69
2023-02-09T01:09:20.833Z,69.24
2023-02-09T01:10:20.823Z,69.21
2023-02-09T01:11:20.806Z,69.67
2023-02-09T01:12:20.805Z,69.67
2023-02-09T01:13:20.782Z,69.87
2023-02-09T01:14:20.777Z,69.35
2023-02-09T01:15:20.774Z,69.84
2023-02-09T01:16:20.784Z,69.35
2023-02-09T01:17:20.745Z,69.56
2023-02-09T01:18:20.736Z,69.77
2023-02-09T01:19:20.717Z,69.77
2023-02-09T01:20:20.755Z,69.67
2023-02-09T01:21:20.719Z,69.87
2023-02-09T01:22:20.689Z,69.98
2023-02-09T01:23:20.658Z,70.32
2023-02-09T01:24:20.668Z,69.98
2023-02-09T01:25:20.656Z,70.29
2023-02-09T01:26:20.634Z,70.81
2023-02-09T01:27:20.672Z,70.81
2023-02-09T01:28:20.713Z,70.61
2023-02-09T01:29:20.609Z,70.61
2023-02-09T01:30:21.505Z,69.87
2023-02-09T01:31:20.781Z,70.40
2023-02-09T01:32:20.602Z,70.81
2023-02-09T01:33:20.593Z,70.50
2023-02-09T01:34:20.542Z,69.87
2023-02-09T01:35:20.544Z,69.77
2023-02-09T01:36:20.519Z,69.77
2023-02-09T01:37:20.528Z,69.67
2023-02-09T01:38:20.528Z,69.77
2023-02-09T01:39:20.540Z,71.03
2023-02-09T01:40:20.532Z,70.71
2023-02-09T01:41:20.464Z,70.61
2023-02-09T01:42:20.454Z,70.50
2023-02-09T01:43:20.459Z,70.81
2023-02-09T01:44:20.459Z,70.61
2023-02-09T01:45:20.446Z,70.71
2023-02-09T01:46:20.468Z,71.13
2023-02-09T01:47:20.398Z,70.08
2023-02-09T01:48:20.408Z,71.03
2023-02-09T01:49:20.415Z,70.92
2023-02-09T01:50:20.389Z,70.71
2023-02-09T01:51:20.368Z,70.50
2023-02-09T01:52:20.357Z,70.61
2023-02-09T01:53:20.369Z,70.81
2023-02-09T01:54:20.349Z,70.81
2023-02-09T01:55:20.318Z,71.03
2023-02-09T01:56:20.298Z,71.03
2023-02-09T01:57:20.417Z,70.75
2023-02-09T01:58:20.277Z,71.06
2023-02-09T01:59:20.289Z,70.95
2023-02-09T02:00:20.293Z,70.85
2023-02-09T02:01:20.249Z,70.61
2023-02-09T02:02:20.297Z,71.06
2023-02-09T02:03:20.231Z,70.75
2023-02-09T02:04:20.245Z,71.03
2023-02-09T02:05:20.212Z,70.85
2023-02-09T02:06:20.196Z,71.16
2023-02-09T02:07:20.194Z,70.85
2023-02-09T02:08:20.168Z,71.16
2023-02-09T02:09:20.205Z,71.03
2023-02-09T02:10:20.164Z,71.13
2023-02-09T02:11:20.130Z,71.16
2023-02-09T02:12:20.153Z,71.44
2023-02-09T02:13:20.110Z,71.23
2023-02-09T02:14:20.103Z,71.44
2023-02-09T02:15:20.089Z,71.58
2023-02-09T02:16:20.105Z,71.23
2023-02-09T02:17:20.094Z,71.48
2023-02-09T02:18:20.071Z,71.37
2023-02-09T02:19:20.060Z,72.11
2023-02-09T02:20:20.098Z,71.89
2023-02-09T02:21:20.048Z,72.21
2023-02-09T02:22:20.030Z,72.11
2023-02-09T06:48:50.889Z,79.31
2023-02-09T06:49:50.843Z,78.78
2023-02-09T06:50:50.836Z,78.85
2023-02-09T06:51:50.828Z,78.99
2023-02-09T06:52:50.816Z,79.10
2023-02-09T06:53:50.810Z,79.31
2023-02-09T06:54:50.780Z,79.52
2023-02-09T06:55:50.772Z,79.58
2023-02-09T06:56:50.770Z,79.52
2023-02-09T06:57:50.750Z,79.83
2023-02-09T06:58:50.764Z,79.62
2023-02-09T06:59:50.727Z,79.62
2023-02-09T07:00:50.718Z,79.62
2023-02-09T07:01:53.434Z,79.62
2023-02-09T07:02:50.748Z,79.41
2023-02-09T07:03:50.700Z,79.73
2023-02-09T07:04:50.691Z,79.52
2023-02-09T07:05:50.667Z,79.73
2023-02-09T07:06:50.651Z,79.94
2023-02-09T07:07:50.652Z,80.04
2023-02-09T07:08:50.655Z,80.15
2023-02-09T07:09:50.617Z,80.26
2023-02-09T07:10:50.614Z,80.04
2023-02-09T07:11:50.608Z,80.04
2023-02-09T07:12:50.593Z,79.83
2023-02-09T07:13:50.606Z,79.83
2023-02-09T07:14:50.557Z,79.62
2023-02-09T07:15:50.626Z,79.62
2023-02-09T07:16:50.533Z,79.62
2023-02-09T07:17:50.528Z,78.96
2023-02-09T07:18:50.536Z,79.27
2023-02-09T07:19:50.518Z,78.75
2023-02-09T07:20:50.526Z,78.43
2023-02-09T07:21:50.494Z,78.53
2023-02-09T07:22:50.483Z,78.33
2023-02-09T07:23:50.466Z,78.64
2023-02-09T07:24:50.459Z,78.33
2023-02-09T07:25:50.452Z,78.08
2023-02-09T07:26:50.437Z,78.08
2023-02-09T07:27:50.582Z,78.29
2023-02-09T07:28:50.406Z,77.76
2023-02-09T07:29:50.421Z,77.87
2023-02-09T07:30:50.512Z,77.56
2023-02-09T07:31:50.402Z,77.21
2023-02-09T07:32:50.358Z,77.42
2023-02-09T07:33:50.366Z,76.57
2023-02-09T07:34:50.338Z,75.92
2023-02-09T07:35:50.340Z,75.56
2023-02-09T07:36:50.336Z,75.60
2023-02-09T07:37:50.303Z,75.88
2023-02-09T07:38:50.290Z,75.15
2023-02-09T07:39:50.301Z,74.80
2023-02-09T07:40:50.291Z,74.38
2023-02-09T07:41:50.292Z,73.93
2023-02-09T07:42:50.243Z,73.82
2023-02-09T07:43:50.236Z,73.30
2023-02-09T07:44:50.236Z,73.05
2023-02-09T07:45:50.232Z,73.05
2023-02-09T07:46:50.312Z,72.95
2023-02-09T07:47:50.204Z,72.64
2023-02-09T07:48:50.196Z,72.50
2023-02-09T07:49:50.180Z,71.77
2023-02-09T07:50:50.154Z,72.50
2023-02-09T07:51:50.172Z,71.31
2023-02-09T07:52:50.174Z,71.52
2023-02-09T07:53:50.138Z,71.49
2023-02-09T07:54:50.365Z,70.97
2023-02-09T07:55:50.101Z,70.45
2023-02-09T07:56:50.101Z,70.55
2023-02-09T07:57:50.080Z,70.55
2023-02-09T07:58:50.061Z,70.86
2023-02-09T07:59:50.071Z,70.41
2023-02-09T08:00:50.066Z,69.68
2023-02-09T08:01:50.156Z,69.26
2023-02-09T08:02:50.038Z,69.13
2023-02-09T08:03:50.043Z,69.06
2023-02-09T08:04:50.025Z,68.95
2023-02-09T08:05:50.132Z,68.50
2023-02-09T08:06:49.983Z,68.29
2023-02-09T08:07:50.001Z,69.23
2023-02-09T08:08:49.993Z,68.82
2023-02-09T08:09:49.939Z,68.71
2023-02-09T08:10:49.936Z,68.37
2023-02-09T08:11:50.002Z,68.33
2023-02-09T08:12:49.931Z,68.02
2023-02-09T08:13:49.899Z,68.30
2023-02-09T08:14:49.882Z,67.57
2023-02-09T08:15:50.014Z,67.29
2023-02-09T08:16:49.861Z,67.23
2023-02-09T08:17:49.868Z,67.16
2023-02-09T08:18:49.864Z,66.92
2023-02-09T08:19:49.835Z,67.13
2023-02-09T08:20:49.830Z,66.50
2023-02-09T08:21:49.809Z,66.29
2023-02-09T08:22:49.803Z,66.71
2023-02-09T08:23:49.800Z,66.01
2023-02-09T08:24:49.793Z,66.74
2023-02-09T08:25:49.767Z,66.85
2023-02-09T08:26:49.757Z,66.71
2023-02-09T08:27:49.740Z,66.50
2023-02-09T08:28:49.814Z,66.39
2023-02-09T08:29:49.719Z,66.50
2023-02-09T08:30:49.791Z,67.13
2023-02-09T08:31:49.856Z,65.88
2023-02-09T08:32:49.679Z,65.98
2023-02-09T08:33:49.693Z,65.95
2023-02-09T08:34:49.658Z,66.57
2023-02-09T08:35:49.653Z,66.16
2023-02-09T08:36:49.649Z,65.43
2023-02-09T08:37:49.624Z,65.67
2023-02-09T08:38:49.624Z,66.29
2023-02-09T08:39:49.618Z,66.92
2023-02-09T08:40:49.626Z,67.16
2023-02-09T08:41:49.600Z,67.26
2023-02-09T08:42:49.578Z,66.85
2023-02-09T08:43:49.590Z,66.63
2023-02-09T08:44:49.556Z,67.57
2023-02-09T08:45:50.104Z,67.16
2023-02-09T08:46:49.657Z,67.92
2023-02-09T08:47:49.516Z,67.71
2023-02-09T08:48:49.542Z,67.40
2023-02-09T08:49:49.493Z,67.81
2023-02-09T08:50:49.510Z,67.71
2023-02-09T08:51:49.486Z,68.02
2023-02-09T08:52:49.470Z,68.23
2023-02-09T08:53:51.836Z,67.92
2023-02-09T08:54:49.450Z,67.92
2023-02-09T08:55:49.546Z,68.44
2023-02-09T08:56:49.437Z,68.02
2023-02-09T08:57:49.406Z,68.44
2023-02-09T08:58:49.397Z,67.92
2023-02-09T08:59:49.406Z,67.92
2023-02-09T09:00:49.463Z,67.88
2023-02-09T09:01:49.470Z,67.60
2023-02-09T09:02:49.361Z,68.13
2023-02-09T09:03:49.501Z,68.13
2023-02-09T09:04:49.348Z,68.44
2023-02-09T09:05:49.602Z,68.44
2023-02-09T09:06:49.302Z,68.75
2023-02-09T09:07:49.304Z,67.19
2023-02-09T09:08:49.309Z,68.02
2023-02-09T09:09:49.295Z,68.02
2023-02-09T09:10:49.263Z,68.44
2023-02-09T09:11:49.272Z,68.44
2023-02-09T09:12:49.259Z,68.30
2023-02-09T09:13:49.222Z,68.30
2023-02-09T09:14:49.233Z,68.62
2023-02-09T09:15:49.473Z,67.88
2023-02-09T09:16:49.294Z,67.88
2023-02-09T09:17:49.177Z,68.30
2023-02-09T09:18:49.172Z,68.30
2023-02-09T09:19:49.153Z,67.88
2023-02-09T09:20:49.162Z,67.88
2023-02-09T09:21:49.162Z,68.30
2023-02-09T09:22:49.137Z,68.10
2023-02-09T09:23:49.110Z,67.78
2023-02-09T09:24:49.118Z,68.51
2023-02-09T09:25:49.236Z,67.96
2023-02-09T09:26:49.097Z,68.27
2023-02-09T09:27:49.069Z,67.85
2023-02-09T09:28:49.093Z,68.07
2023-02-09T09:29:49.059Z,67.75
2023-02-09T09:30:49.099Z,67.75
2023-02-09T09:31:49.127Z,67.61
2023-02-09T09:32:50.874Z,67.41
2023-02-09T09:33:48.999Z,67.20
2023-02-09T09:34:49.003Z,67.07
2023-02-09T09:35:49.045Z,66.23
2023-02-09T09:36:48.986Z,66.54
2023-02-09T09:37:48.984Z,66.02
2023-02-09T09:38:48.963Z,65.61
2023-02-09T09:39:48.932Z,66.44
2023-02-09T09:40:48.964Z,66.54
2023-02-09T09:41:48.928Z,65.99
2023-02-09T09:42:48.914Z,66.51
2023-02-09T09:43:48.904Z,66.20
2023-02-09T09:44:48.915Z,65.75
2023-02-09T09:45:49.378Z,65.44
2023-02-09T09:46:48.870Z,65.75
2023-02-09T09:47:48.875Z,65.72
2023-02-09T09:48:48.840Z,64.97
2023-02-09T09:49:48.818Z,64.34
2023-02-09T09:50:48.831Z,63.69
2023-02-09T09:51:48.820Z,63.48
2023-02-09T09:52:48.805Z,62.96
2023-02-09T09:53:48.788Z,62.93
2023-02-09T09:54:48.779Z,62.86
2023-02-09T09:55:49.070Z,63.07
2023-02-09T09:56:48.765Z,63.14
2023-02-09T09:57:48.741Z,64.07
2023-02-09T09:58:48.718Z,63.11
2023-02-09T09:59:48.728Z,61.76
2023-02-09T10:00:48.761Z,63.63
2023-02-09T10:01:48.698Z,62.49
2023-02-09T10:02:48.687Z,62.46
2023-02-09T10:03:48.684Z,62.15
2023-02-09T10:04:48.740Z,61.32
2023-02-09T10:05:48.666Z,61.40
2023-02-09T10:06:48.647Z,61.36
2023-02-09T10:07:48.632Z,60.25
2023-02-09T10:08:48.625Z,60.12
2023-02-09T10:09:48.592Z,60.25
2023-02-09T10:10:48.583Z,60.02
2023-02-09T10:11:48.594Z,60.72
2023-02-09T10:12:48.578Z,59.78
2023-02-09T10:13:48.566Z,59.66
2023-02-09T10:14:48.553Z,59.11
2023-02-09T10:15:48.521Z,58.98
2023-02-09T10:16:48.609Z,58.46
2023-02-09T10:17:48.566Z,58.98
2023-02-09T10:18:48.504Z,58.12
2023-02-09T10:19:48.493Z,57.40
2023-02-09T10:20:48.514Z,57.32
2023-02-09T10:21:48.460Z,57.53
2023-02-09T10:22:48.466Z,57.76
2023-02-09T10:23:48.459Z,58.69
2023-02-09T10:24:48.429Z,57.66
2023-02-09T10:25:48.617Z,57.53
2023-02-09T10:26:49.039Z,57.56
2023-02-09T10:27:48.394Z,57.94
2023-02-09T10:28:48.408Z,57.42
2023-02-09T10:29:48.362Z,57.22
2023-02-09T10:30:48.456Z,57.42
2023-02-09T10:31:48.475Z,57.40
2023-02-09T10:32:48.377Z,57.09
2023-02-09T10:33:48.328Z,57.40
2023-02-09T10:34:48.325Z,57.09
2023-02-09T10:35:48.524Z,57.40
2023-02-09T10:36:48.298Z,57.50
2023-02-09T10:37:48.308Z,57.48
2023-02-09T10:38:48.262Z,56.24
2023-02-09T10:39:48.264Z,55.82
2023-02-09T10:40:48.237Z,56.44
2023-02-09T10:41:48.224Z,56.54
2023-02-09T10:42:48.227Z,56.73
2023-02-09T10:43:48.212Z,56.41
2023-02-09T10:44:48.210Z,56.49
2023-02-09T10:45:48.719Z,55.74
2023-02-09T10:46:48.187Z,55.33
2023-02-09T10:47:48.153Z,55.33
2023-02-09T10:48:48.189Z,54.69
2023-02-09T10:49:48.148Z,55.00
2023-02-09T10:50:48.144Z,54.82
2023-02-09T10:51:50.241Z,55.41
2023-02-09T10:52:48.120Z,54.90
2023-02-09T10:53:48.097Z,54.38
2023-02-09T10:54:48.095Z,54.38
2023-02-09T10:55:48.382Z,54.69
2023-02-09T10:56:48.074Z,54.17
2023-02-09T10:57:48.052Z,54.46
2023-02-09T10:58:48.031Z,53.83
2023-02-09T10:59:48.064Z,53.83
2023-02-09T11:00:48.015Z,53.42
2023-02-09T11:01:48.013Z,53.71
2023-02-09T11:02:47.988Z,52.70
2023-02-09T11:03:47.973Z,53.42
2023-02-09T11:04:48.005Z,53.11
2023-02-09T11:05:48.348Z,53.11
2023-02-09T11:06:47.958Z,54.14
2023-02-09T11:07:47.929Z,54.14
2023-02-09T11:08:47.943Z,53.53
2023-02-09T11:09:47.921Z,54.14
2023-02-09T11:10:47.930Z,53.94
2023-02-09T11:11:47.893Z,54.14
2023-02-09T11:12:47.883Z,54.04
2023-02-09T11:13:47.861Z,53.01
2023-02-09T11:14:47.857Z,53.03
2023-02-09T11:15:48.281Z,53.89
2023-02-09T11:16:47.874Z,54.22
2023-02-09T11:17:47.817Z,54.76
2023-02-09T11:18:47.817Z,54.76
2023-02-09T11:19:47.801Z,55.07
2023-02-09T11:20:47.811Z,54.76
2023-02-09T11:21:47.805Z,54.76
2023-02-09T11:22:47.778Z,54.86
2023-02-09T11:23:47.767Z,54.55
2023-02-09T11:24:47.742Z,54.55
2023-02-09T11:25:47.881Z,54.32
2023-02-09T11:26:47.722Z,54.22
2023-02-09T11:27:47.742Z,54.50
2023-02-09T11:28:47.715Z,54.27
2023-02-09T11:29:47.685Z,54.69
2023-02-09T11:30:48.288Z,54.27
2023-02-09T11:31:47.697Z,53.24
2023-02-09T11:32:47.684Z,54.38
2023-02-09T11:33:47.635Z,54.30
2023-02-09T11:34:47.642Z,54.61
2023-02-09T11:35:47.619Z,54.50
2023-02-09T11:36:47.649Z,54.27
2023-02-09T11:37:47.633Z,53.45
2023-02-09T11:38:47.588Z,53.66
2023-02-09T11:39:47.582Z,54.17
2023-02-09T11:40:47.971Z,53.96
2023-02-09T11:41:47.562Z,53.45
2023-02-09T11:42:47.542Z,54.09
2023-02-09T11:43:47.550Z,53.89
2023-02-09T11:44:47.536Z,53.91
2023-02-09T11:45:47.526Z,54.63
2023-02-09T11:46:47.573Z,54.45
2023-02-09T11:47:47.495Z,54.86
2023-02-09T11:48:47.489Z,55.85
2023-02-09T11:49:47.469Z,54.92
2023-02-09T11:50:47.828Z,53.86
2023-02-09T11:51:47.440Z,53.83
2023-02-09T11:52:47.453Z,53.32
2023-02-09T11:53:47.422Z,53.01
2023-02-09T11:54:47.407Z,53.01
2023-02-09T11:55:47.408Z,53.01
2023-02-09T11:56:47.381Z,52.91
2023-02-09T11:57:47.376Z,53.32
2023-02-09T11:58:47.380Z,53.01
2023-02-09T11:59:47.357Z,52.70
2023-02-09T12:00:54.854Z,52.81
2023-02-09T12:01:48.335Z,53.30
2023-02-09T12:02:47.413Z,53.38
2023-02-09T12:03:47.331Z,52.24
2023-02-09T12:04:47.304Z,52.55
2023-02-09T12:05:47.286Z,52.16
2023-02-09T12:06:47.368Z,51.44
2023-02-09T12:07:47.269Z,52.29
2023-02-09T12:08:47.285Z,52.81
2023-02-09T12:09:47.237Z,53.42
2023-02-09T12:10:47.495Z,53.30
2023-02-09T12:11:47.205Z,52.76
2023-02-09T12:12:47.200Z,52.45
2023-02-09T12:13:48.589Z,51.62
2023-02-09T12:14:47.194Z,52.03
2023-02-09T12:15:47.189Z,51.62
2023-02-09T12:16:47.165Z,51.31
2023-02-09T12:17:47.151Z,51.31
2023-02-09T12:18:47.138Z,51.83
2023-02-09T12:19:48.436Z,51.54
2023-02-09T12:20:47.366Z,52.26
2023-02-09T12:21:47.105Z,51.42
2023-02-09T12:22:47.097Z,51.83
2023-02-09T12:23:47.088Z,51.29
2023-02-09T12:24:47.105Z,50.26
2023-02-09T12:25:48.041Z,51.18
2023-02-09T12:26:47.052Z,49.72
2023-02-09T12:27:47.122Z,50.03
2023-02-09T12:28:47.036Z,49.64
2023-02-09T12:29:46.998Z,50.13
2023-02-09T12:30:47.458Z,50.21
2023-02-09T12:31:47.101Z,50.32
2023-02-09T12:32:46.980Z,49.70
2023-02-09T12:33:46.974Z,49.47
2023-02-09T12:34:46.957Z,49.16
2023-02-09T12:35:46.963Z,49.39
2023-02-09T12:36:46.949Z,49.52
2023-02-09T12:37:46.920Z,49.29
2023-02-09T12:38:51.562Z,49.64
2023-02-09T12:39:47.897Z,49.85
2023-02-09T12:40:47.084Z,49.74
2023-02-09T12:41:46.894Z,49.66
2023-02-09T12:42:46.880Z,49.77
2023-02-09T12:43:46.847Z,49.77
2023-02-09T12:44:46.845Z,49.95
2023-02-09T12:45:47.333Z,50.16
2023-02-09T12:46:46.844Z,50.83
2023-02-09T12:47:46.804Z,49.26
2023-02-09T12:48:46.782Z,49.35
2023-02-09T12:49:46.794Z,48.60
2023-02-09T12:50:46.775Z,47.24
2023-02-09T12:51:46.772Z,47.04
2023-02-09T12:52:46.738Z,45.91
2023-02-09T12:53:46.771Z,45.81
2023-02-09T12:54:46.734Z,45.07
2023-02-09T12:55:47.084Z,45.37
2023-02-09T12:56:46.808Z,46.11
2023-02-09T12:57:47.608Z,46.01
2023-02-09T12:58:46.687Z,45.52
2023-02-09T12:59:46.653Z,45.50
2023-02-09T13:00:46.712Z,46.34
2023-02-09T13:01:46.635Z,45.72
2023-02-09T13:02:46.666Z,46.55
2023-02-09T13:03:46.655Z,47.06
2023-02-09T13:04:46.604Z,47.14
2023-02-09T13:05:46.964Z,47.14
2023-02-09T13:06:46.593Z,46.69
2023-02-09T13:07:46.581Z,46.15
2023-02-09T13:08:46.572Z,45.43
2023-02-09T13:09:47.082Z,45.64
2023-02-09T13:10:46.552Z,45.64
2023-02-09T13:11:46.532Z,45.04
2023-02-09T13:12:46.555Z,45.45
2023-02-09T13:13:46.528Z,45.74
2023-02-09T13:14:46.509Z,46.67
2023-02-09T13:15:46.748Z,46.23
2023-02-09T13:16:46.593Z,45.18
2023-02-09T13:17:46.475Z,45.78
2023-02-09T13:18:46.446Z,46.39
2023-02-09T13:19:48.221Z,46.07
2023-02-09T13:20:46.438Z,44.73
2023-02-09T13:21:46.419Z,43.71
2023-02-09T13:22:46.408Z,43.53
2023-02-09T13:23:46.416Z,44.17
2023-02-09T13:24:46.399Z,44.26
2023-02-09T13:25:46.744Z,44.47
2023-02-09T13:26:46.358Z,44.06
2023-02-09T13:27:46.365Z,45.09
2023-02-09T13:28:46.369Z,44.57
2023-02-09T13:29:46.450Z,44.26
2023-02-09T13:30:46.348Z,43.37
2023-02-09T13:31:46.373Z,44.29
2023-02-09T13:32:46.302Z,45.21
2023-02-09T13:33:46.298Z,45.10
2023-02-09T13:34:46.293Z,44.88
2023-02-09T13:35:46.630Z,43.96
2023-02-09T13:36:46.265Z,43.85
2023-02-09T13:37:46.249Z,44.06
2023-02-09T13:38:46.258Z,43.88
2023-02-09T13:39:46.227Z,44.41
2023-02-09T13:40:46.224Z,44.82
2023-02-09T13:41:46.269Z,45.54
2023-02-09T13:42:46.185Z,45.36
2023-02-09T13:43:46.175Z,45.15
2023-02-09T13:44:46.199Z,44.84
2023-02-09T13:45:46.565Z,44.94
2023-02-09T13:46:46.143Z,45.13
2023-02-09T13:47:46.144Z,45.36
2023-02-09T13:48:46.117Z,44.84
2023-02-09T13:49:46.128Z,45.45
2023-02-09T13:50:46.081Z,45.03
2023-02-09T13:51:46.107Z,46.25
2023-02-09T13:52:46.082Z,45.74
2023-02-09T13:53:46.054Z,44.82
2023-02-09T13:54:46.062Z,45.10
2023-02-09T13:55:46.572Z,45.00
2023-02-09T13:56:46.029Z,44.59
2023-02-09T13:57:46.022Z,44.78
2023-02-09T13:58:46.003Z,44.68
2023-02-09T13:59:45.997Z,45.00
2023-02-09T14:00:45.998Z,45.15
2023-02-09T14:01:45.968Z,45.37
2023-02-09T14:02:46.023Z,45.50
2023-02-09T14:03:57.411Z,45.70
2023-02-09T14:04:46.941Z,47.16
2023-02-09T14:05:46.255Z,47.14
2023-02-09T14:06:45.908Z,46.65
2023-02-09T14:07:45.894Z,46.67
2023-02-09T14:08:45.890Z,47.08
2023-02-09T14:09:45.880Z,47.00
2023-02-09T14:10:45.867Z,47.41
2023-02-09T14:11:45.847Z,47.33
2023-02-09T14:12:45.829Z,47.72
2023-02-09T14:13:45.838Z,47.52
2023-02-09T14:14:45.805Z,47.62
2023-02-09T14:15:46.086Z,47.72
2023-02-09T14:16:53.423Z,48.03
2023-02-09T14:17:46.802Z,47.91
2023-02-09T14:18:45.799Z,47.72
2023-02-09T14:19:45.821Z,47.29
2023-02-09T14:20:45.748Z,47.19
2023-02-09T14:21:45.734Z,47.11
2023-02-09T14:22:45.712Z,47.70
2023-02-09T14:23:45.706Z,48.01
2023-02-09T14:24:45.708Z,47.70
2023-02-09T14:25:46.243Z,47.39
2023-02-09T14:26:45.680Z,47.49
2023-02-09T14:27:45.660Z,47.39
2023-02-09T14:28:45.646Z,47.16
2023-02-09T14:29:45.648Z,47.16
2023-02-09T14:30:45.685Z,45.72
2023-02-09T14:31:45.623Z,46.75
2023-02-09T14:32:45.627Z,47.16
2023-02-09T14:33:45.611Z,47.14
2023-02-09T14:34:45.585Z,45.93
2023-02-09T14:35:45.840Z,46.90
2023-02-09T14:36:45.551Z,47.31
2023-02-09T14:37:45.567Z,47.20
2023-02-09T14:38:45.539Z,47.31
2023-02-09T14:39:45.517Z,48.03
2023-02-09T14:40:45.520Z,47.20
2023-02-09T14:41:45.510Z,47.08
2023-02-09T14:42:45.494Z,47.82
2023-02-09T14:43:45.484Z,47.70
2023-02-09T14:44:45.468Z,47.60
2023-02-09T14:45:45.799Z,47.91
2023-02-09T14:46:45.459Z,47.49
2023-02-09T14:47:45.438Z,47.62
2023-02-09T14:48:45.530Z,47.72
2023-02-09T14:49:45.406Z,48.13
2023-02-09T14:50:45.705Z,47.82
2023-02-09T14:51:45.415Z,48.16
2023-02-09T14:52:47.419Z,47.95
2023-02-09T14:53:45.362Z,47.64
2023-02-09T14:54:45.355Z,48.16
2023-02-09T14:55:45.777Z,47.85
2023-02-09T14:56:45.338Z,47.95
2023-02-09T14:57:45.334Z,47.87
2023-02-09T14:58:45.308Z,48.69
2023-02-09T14:59:45.294Z,48.80
2023-02-09T15:00:45.295Z,49.93
2023-02-09T15:01:45.344Z,49.41
2023-02-09T15:02:45.345Z,48.71
2023-02-09T15:03:45.249Z,47.99
2023-02-09T15:04:45.284Z,49.66
2023-02-09T15:05:45.627Z,50.08
2023-02-09T15:06:45.247Z,50.49
2023-02-09T15:07:45.217Z,49.87
2023-02-09T15:08:45.190Z,50.08
2023-02-09T15:09:45.190Z,49.79
2023-02-09T15:10:45.185Z,49.69
2023-02-09T15:11:45.177Z,49.69
2023-02-09T15:12:45.144Z,50.41
2023-02-09T15:13:45.157Z,50.62
2023-02-09T15:14:45.120Z,49.99
2023-02-09T15:15:45.476Z,50.74
2023-02-09T15:16:45.127Z,51.46
2023-02-09T15:17:45.122Z,51.46
2023-02-09T15:18:45.096Z,51.79
2023-02-09T15:19:45.101Z,51.78
2023-02-09T15:20:45.091Z,51.79
2023-02-09T15:21:47.558Z,52.52
2023-02-09T15:22:46.043Z,52.42
2023-02-09T15:23:45.033Z,52.52
2023-02-09T15:24:45.030Z,52.21
2023-02-09T15:25:45.436Z,51.70
2023-02-09T15:26:44.996Z,51.79
2023-02-09T15:27:51.245Z,51.70
2023-02-09T15:28:45.960Z,51.18
2023-02-09T15:29:44.978Z,51.70
2023-02-09T15:30:45.569Z,51.59
2023-02-09T15:31:45.075Z,51.59
2023-02-09T15:32:44.925Z,52.00
2023-02-09T15:33:44.923Z,51.62
2023-02-09T15:34:44.908Z,52.13
2023-02-09T15:35:45.241Z,51.28
2023-02-09T15:36:44.961Z,51.79
2023-02-09T15:37:44.874Z,51.59
2023-02-09T15:38:44.843Z,51.70
2023-02-09T15:39:44.850Z,52.31
2023-02-09T15:40:45.256Z,52.65
2023-02-09T15:41:44.829Z,52.42
2023-02-09T15:42:44.800Z,52.55
2023-02-09T15:43:44.804Z,52.23
2023-02-09T15:44:44.796Z,52.44
2023-02-09T15:45:44.774Z,53.47
2023-02-09T15:46:44.857Z,53.06
2023-02-09T15:47:44.753Z,53.37
2023-02-09T15:48:44.881Z,52.34
2023-02-09T15:49:44.722Z,52.23
2023-02-09T15:50:45.013Z,52.44
2023-02-09T15:51:44.715Z,52.65
2023-02-09T15:52:44.718Z,52.86
2023-02-09T15:53:44.735Z,52.65
2023-02-09T15:54:45.631Z,53.58
2023-02-09T15:55:44.674Z,53.19
2023-02-09T15:56:44.673Z,53.47
2023-02-09T15:57:44.648Z,52.67
2023-02-09T15:58:44.627Z,52.88
2023-02-09T15:59:44.642Z,53.29
2023-02-09T16:00:44.953Z,52.78
2023-02-09T16:01:44.746Z,53.19
2023-02-09T16:02:44.657Z,53.08
2023-02-09T16:03:44.581Z,54.25
2023-02-09T16:04:44.548Z,54.25
2023-02-09T16:05:44.557Z,53.29
2023-02-09T16:06:44.543Z,53.21
2023-02-09T16:07:44.534Z,53.60
2023-02-09T16:08:44.538Z,53.83
2023-02-09T16:09:44.538Z,53.42
2023-02-09T16:10:44.941Z,53.42
2023-02-09T16:11:44.510Z,53.94
2023-02-09T16:12:44.458Z,54.27
2023-02-09T16:13:44.476Z,54.97
2023-02-09T16:14:44.443Z,54.06
2023-02-09T16:15:44.456Z,54.35
2023-02-09T16:16:44.490Z,53.86
2023-02-09T16:17:44.424Z,54.38
2023-02-09T16:18:44.438Z,53.52
2023-02-09T16:19:44.383Z,53.96
2023-02-09T16:20:44.694Z,53.96
2023-02-09T16:21:44.386Z,54.17
2023-02-09T16:22:44.376Z,54.58
2023-02-09T16:23:44.347Z,54.48
2023-02-09T16:24:44.362Z,54.68
2023-02-09T16:25:44.330Z,54.55
2023-02-09T16:26:44.303Z,54.89
2023-02-09T16:27:44.336Z,55.72
2023-02-09T16:28:44.293Z,55.72
2023-02-09T16:29:44.295Z,54.99
2023-02-09T16:30:44.738Z,55.95
2023-02-09T16:31:44.318Z,55.46
2023-02-09T16:32:44.260Z,56.37
2023-02-09T16:33:44.242Z,55.64
2023-02-09T16:34:44.232Z,56.05
2023-02-09T16:35:44.533Z,55.56
2023-02-09T16:36:44.189Z,55.66
2023-02-09T16:37:44.193Z,54.94
2023-02-09T16:38:44.169Z,55.15
2023-02-09T16:39:44.173Z,55.15
2023-02-09T16:40:44.167Z,55.56
2023-02-09T16:41:44.161Z,56.60
2023-02-09T16:42:44.136Z,56.73
2023-02-09T16:43:44.117Z,56.91
2023-02-09T16:44:44.114Z,56.21
2023-02-09T16:45:53.977Z,56.29
2023-02-09T16:46:45.127Z,56.91
2023-02-09T16:47:44.102Z,56.73
2023-02-09T16:48:44.069Z,57.35
2023-02-09T16:49:44.061Z,56.91
2023-02-09T16:50:44.048Z,56.62
2023-02-09T16:51:44.046Z,56.70
2023-02-09T16:52:44.023Z,57.04
2023-02-09T16:53:44.015Z,57.14
2023-02-09T16:54:43.987Z,57.14
2023-02-09T16:55:44.288Z,57.35
2023-02-09T16:56:54.025Z,57.89
2023-02-09T16:57:44.970Z,57.48
2023-02-09T16:58:43.956Z,58.20
2023-02-09T16:59:43.954Z,58.41
2023-02-09T17:00:43.997Z,57.48
2023-02-09T17:01:43.924Z,57.79
2023-02-09T17:02:43.930Z,57.81
2023-02-09T17:03:43.903Z,57.81
2023-02-09T17:04:43.874Z,57.71
2023-02-09T17:05:44.217Z,57.60
2023-02-09T17:06:43.855Z,57.50
2023-02-09T17:07:53.876Z,58.12
2023-02-09T17:08:44.879Z,58.44
2023-02-09T17:09:43.818Z,58.64
2023-02-09T17:10:43.816Z,58.75
2023-02-09T17:11:43.818Z,59.09
2023-02-09T17:12:43.832Z,59.50
2023-02-09T17:13:43.790Z,59.40
2023-02-09T17:14:43.789Z,59.30
2023-02-09T17:15:43.763Z,59.50
2023-02-09T17:16:43.779Z,59.19
2023-02-09T17:17:43.741Z,59.30